sensor_id;sensor_type;location;lat;lon;timestamp;pressure;altitude;pressure_sealevel;temperature;humidity
12799;BME280;19250;42.646;26.980;2023-02-28T00:01:32;99772.09;;;7.97;100.00
12799;BME280;19250;42.646;26.980;2023-02-28T00:04:00;99767.81;;;8.17;100.00
12799;BME280;19250;42.646;26.980;2023-02-28T00:06:29;99764.41;;;8.37;100.00
12799;BME280;19250;42.646;26.980;2023-02-28T00:08:56;99778.50;;;8.49;100.00
12799;BME280;19250;42.646;26.980;2023-02-28T00:11:24;99772.63;;;8.66;100.00
12799;BME280;19250;42.646;26.980;2023-02-28T00:13:51;99768.97;;;8.46;100.00
12799;BME280;19250;42.646;26.980;2023-02-28T00:16:20;99768.97;;;8.46;100.00
12799;BME280;19250;42.646;26.980;2023-02-28T00:18:47;99763.94;;;8.21;100.00
12799;BME280;19250;42.646;26.980;2023-02-28T00:21:15;99776.47;;;8.41;100.00
12799;BME280;19250;42.646;26.980;2023-02-28T00:23:44;99770.78;;;8.46;100.00
12799;BME280;19250;42.646;26.980;2023-02-28T00:26:12;99780.06;;;8.51;100.00
12799;BME280;19250;42.646;26.980;2023-02-28T00:28:39;99777.22;;;8.32;100.00
12799;BME280;19250;42.646;26.980;2023-02-28T00:31:06;99775.56;;;8.31;100.00
12799;BME280;19250;42.646;26.980;2023-02-28T00:33:33;99772.16;;;8.18;100.00
12799;BME280;19250;42.646;26.980;2023-02-28T00:36:02;99781.84;;;8.19;100.00
12799;BME280;19250;42.646;26.980;2023-02-28T00:38:30;99797.88;;;8.17;100.00
12799;BME280;19250;42.646;26.980;2023-02-28T00:40:59;99792.06;;;8.23;100.00
12799;BME280;19250;42.646;26.980;2023-02-28T00:43:31;99782.78;;;8.18;100.00
12799;BME280;19250;42.646;26.980;2023-02-28T00:45:58;99784.50;;;8.08;100.00
12799;BME280;19250;42.646;26.980;2023-02-28T00:48:25;99780.88;;;8.09;100.00
12799;BME280;19250;42.646;26.980;2023-02-28T00:50:53;99778.69;;;8.14;100.00
12799;BME280;19250;42.646;26.980;2023-02-28T00:53:20;99788.47;;;8.13;100.00
12799;BME280;19250;42.646;26.980;2023-02-28T00:55:49;99799.94;;;8.36;100.00
12799;BME280;19250;42.646;26.980;2023-02-28T00:58:17;99807.34;;;8.53;100.00
12799;BME280;19250;42.646;26.980;2023-02-28T01:00:45;99767.28;;;8.45;100.00
12799;BME280;19250;42.646;26.980;2023-02-28T01:03:14;99796.97;;;8.50;100.00
12799;BME280;19250;42.646;26.980;2023-02-28T01:05:42;99790.00;;;8.27;100.00
12799;BME280;19250;42.646;26.980;2023-02-28T01:08:09;99782.16;;;8.26;100.00
12799;BME280;19250;42.646;26.980;2023-02-28T01:10:36;99810.06;;;8.42;100.00
12799;BME280;19250;42.646;26.980;2023-02-28T01:13:04;99814.34;;;8.54;100.00
12799;BME280;19250;42.646;26.980;2023-02-28T01:15:33;99808.69;;;8.48;100.00
12799;BME280;19250;42.646;26.980;2023-02-28T01:18:00;99818.69;;;8.87;100.00
12799;BME280;19250;42.646;26.980;2023-02-28T01:20:27;99814.03;;;8.80;100.00
12799;BME280;19250;42.646;26.980;2023-02-28T01:22:54;99799.88;;;8.47;100.00
12799;BME280;19250;42.646;26.980;2023-02-28T01:25:22;99805.69;;;8.41;100.00
12799;BME280;19250;42.646;26.980;2023-02-28T01:27:49;99793.59;;;8.48;100.00
12799;BME280;19250;42.646;26.980;2023-02-28T01:30:16;99812.75;;;8.63;100.00
12799;BME280;19250;42.646;26.980;2023-02-28T01:32:45;99804.41;;;8.67;100.00
12799;BME280;19250;42.646;26.980;2023-02-28T01:35:12;99812.16;;;8.59;100.00
12799;BME280;19250;42.646;26.980;2023-02-28T01:37:40;99807.41;;;8.42;100.00
12799;BME280;19250;42.646;26.980;2023-02-28T01:40:08;99805.94;;;8.38;100.00
12799;BME280;19250;42.646;26.980;2023-02-28T01:42:36;99818.41;;;8.38;100.00
12799;BME280;19250;42.646;26.980;2023-02-28T01:45:14;99820.47;;;8.34;100.00
12799;BME280;19250;42.646;26.980;2023-02-28T01:47:48;99808.97;;;8.22;100.00
12799;BME280;19250;42.646;26.980;2023-02-28T01:50:19;99818.88;;;8.43;100.00
12799;BME280;19250;42.646;26.980;2023-02-28T01:52:48;99831.06;;;8.45;100.00
12799;BME280;19250;42.646;26.980;2023-02-28T01:55:17;99818.31;;;8.60;100.00
12799;BME280;19250;42.646;26.980;2023-02-28T01:57:49;99811.19;;;8.60;100.00
12799;BME280;19250;42.646;26.980;2023-02-28T02:00:21;99811.09;;;8.62;100.00
12799;BME280;19250;42.646;26.980;2023-02-28T02:02:53;99830.19;;;8.56;100.00
12799;BME280;19250;42.646;26.980;2023-02-28T02:05:23;99814.25;;;8.45;100.00
12799;BME280;19250;42.646;26.980;2023-02-28T02:07:53;99826.22;;;8.50;100.00
12799;BME280;19250;42.646;26.980;2023-02-28T02:10:25;99837.22;;;8.46;100.00
12799;BME280;19250;42.646;26.980;2023-02-28T02:13:11;99842.75;;;8.54;100.00
12799;BME280;19250;42.646;26.980;2023-02-28T02:15:47;99835.19;;;8.38;100.00
12799;BME280;19250;42.646;26.980;2023-02-28T02:18:26;99825.03;;;8.43;100.00
12799;BME280;19250;42.646;26.980;2023-02-28T02:21:16;99826.75;;;8.33;100.00
12799;BME280;19250;42.646;26.980;2023-02-28T02:27:17;99832.78;;;8.24;100.00
12799;BME280;19250;42.646;26.980;2023-02-28T02:30:36;99841.00;;;8.10;100.00
12799;BME280;19250;42.646;26.980;2023-02-28T02:36:19;99842.38;;;8.58;100.00
12799;BME280;19250;42.646;26.980;2023-02-28T02:38:50;99842.13;;;8.61;100.00
12799;BME280;19250;42.646;26.980;2023-02-28T02:41:26;99844.13;;;8.37;100.00
12799;BME280;19250;42.646;26.980;2023-02-28T02:44:01;99829.16;;;8.25;100.00
12799;BME280;19250;42.646;26.980;2023-02-28T02:46:32;99821.44;;;8.22;100.00
12799;BME280;19250;42.646;26.980;2023-02-28T02:49:03;99825.03;;;8.43;100.00
12799;BME280;19250;42.646;26.980;2023-02-28T02:51:35;99843.75;;;8.53;100.00
12799;BME280;19250;42.646;26.980;2023-02-28T02:54:06;99843.09;;;8.60;100.00
12799;BME280;19250;42.646;26.980;2023-02-28T02:56:36;99839.78;;;8.25;100.00
12799;BME280;19250;42.646;26.980;2023-02-28T02:59:09;99839.06;;;8.34;100.00
12799;BME280;19250;42.646;26.980;2023-02-28T03:01:39;99842.69;;;8.22;100.00
12799;BME280;19250;42.646;26.980;2023-02-28T03:04:11;99847.28;;;8.09;100.00
12799;BME280;19250;42.646;26.980;2023-02-28T03:06:41;99819.59;;;8.22;100.00
12799;BME280;19250;42.646;26.980;2023-02-28T03:09:08;99845.34;;;8.22;100.00
12799;BME280;19250;42.646;26.980;2023-02-28T03:11:37;99848.84;;;8.11;100.00
12799;BME280;19250;42.646;26.980;2023-02-28T03:14:12;99861.13;;;8.23;100.00
12799;BME280;19250;42.646;26.980;2023-02-28T03:17:00;99861.00;;;8.58;100.00
12799;BME280;19250;42.646;26.980;2023-02-28T03:19:37;99851.63;;;8.32;100.00
12799;BME280;19250;42.646;26.980;2023-02-28T03:22:16;99864.44;;;8.16;100.00
12799;BME280;19250;42.646;26.980;2023-02-28T03:24:50;99853.66;;;8.17;100.00
12799;BME280;19250;42.646;26.980;2023-02-28T03:27:24;99851.50;;;8.00;100.00
12799;BME280;19250;42.646;26.980;2023-02-28T03:30:00;99858.97;;;8.17;100.00
12799;BME280;19250;42.646;26.980;2023-02-28T03:32:34;99856.34;;;8.06;100.00
12799;BME280;19250;42.646;26.980;2023-02-28T03:35:07;99867.56;;;7.88;100.00
12799;BME280;19250;42.646;26.980;2023-02-28T03:37:39;99871.06;;;7.99;100.00
12799;BME280;19250;42.646;26.980;2023-02-28T03:40:11;99841.34;;;7.83;100.00
12799;BME280;19250;42.646;26.980;2023-02-28T03:42:43;99865.66;;;8.01;100.00
12799;BME280;19250;42.646;26.980;2023-02-28T03:45:14;99870.56;;;8.05;100.00
12799;BME280;19250;42.646;26.980;2023-02-28T03:47:45;99874.81;;;8.30;100.00
12799;BME280;19250;42.646;26.980;2023-02-28T03:50:17;99874.56;;;8.22;100.00
12799;BME280;19250;42.646;26.980;2023-02-28T03:52:50;99860.66;;;8.07;100.00
12799;BME280;19250;42.646;26.980;2023-02-28T03:55:20;99853.81;;;7.94;100.00
12799;BME280;19250;42.646;26.980;2023-02-28T03:57:54;99865.28;;;7.94;100.00
12799;BME280;19250;42.646;26.980;2023-02-28T04:00:27;99869.63;;;8.06;100.00
12799;BME280;19250;42.646;26.980;2023-02-28T04:02:56;99864.66;;;8.02;100.00
12799;BME280;19250;42.646;26.980;2023-02-28T04:05:24;99862.97;;;7.90;100.00
12799;BME280;19250;42.646;26.980;2023-02-28T04:07:54;99856.47;;;7.94;100.00
12799;BME280;19250;42.646;26.980;2023-02-28T04:10:21;99864.44;;;7.83;100.00
12799;BME280;19250;42.646;26.980;2023-02-28T04:12:49;99853.81;;;7.83;100.00
12799;BME280;19250;42.646;26.980;2023-02-28T04:15:16;99855.72;;;7.81;100.00
12799;BME280;19250;42.646;26.980;2023-02-28T04:17:43;99862.94;;;7.67;100.00
12799;BME280;19250;42.646;26.980;2023-02-28T04:20:11;99816.38;;;7.30;100.00
12799;BME280;19250;42.646;26.980;2023-02-28T04:22:38;99878.06;;;7.78;100.00
12799;BME280;19250;42.646;26.980;2023-02-28T04:25:08;99882.38;;;7.68;100.00
12799;BME280;19250;42.646;26.980;2023-02-28T04:27:35;99883.00;;;7.94;100.00
12799;BME280;19250;42.646;26.980;2023-02-28T04:30:03;99879.16;;;7.98;100.00
12799;BME280;19250;42.646;26.980;2023-02-28T04:32:30;99881.44;;;7.69;100.00
12799;BME280;19250;42.646;26.980;2023-02-28T04:34:57;99882.50;;;7.78;100.00
12799;BME280;19250;42.646;26.980;2023-02-28T04:37:25;99894.13;;;7.99;100.00
12799;BME280;19250;42.646;26.980;2023-02-28T04:39:54;99892.19;;;7.90;100.00
12799;BME280;19250;42.646;26.980;2023-02-28T04:42:23;99890.47;;;7.66;100.00
12799;BME280;19250;42.646;26.980;2023-02-28T04:44:50;99879.84;;;7.78;100.00
12799;BME280;19250;42.646;26.980;2023-02-28T04:47:17;99884.56;;;8.07;100.00
12799;BME280;19250;42.646;26.980;2023-02-28T04:49:45;99894.25;;;7.97;100.00
12799;BME280;19250;42.646;26.980;2023-02-28T04:52:12;99889.75;;;7.87;100.00
12799;BME280;19250;42.646;26.980;2023-02-28T04:54:39;99876.28;;;8.01;100.00
12799;BME280;19250;42.646;26.980;2023-02-28T04:57:07;99886.50;;;8.05;100.00
12799;BME280;19250;42.646;26.980;2023-02-28T04:59:35;99884.22;;;8.01;100.00
12799;BME280;19250;42.646;26.980;2023-02-28T05:02:03;99890.13;;;7.82;100.00
12799;BME280;19250;42.646;26.980;2023-02-28T05:04:32;99901.81;;;7.68;100.00
12799;BME280;19250;42.646;26.980;2023-02-28T05:07:00;99901.38;;;7.86;100.00
12799;BME280;19250;42.646;26.980;2023-02-28T05:09:29;99904.97;;;7.85;100.00
12799;BME280;19250;42.646;26.980;2023-02-28T05:11:56;99908.72;;;7.93;100.00
12799;BME280;19250;42.646;26.980;2023-02-28T05:14:23;99913.91;;;7.84;100.00
12799;BME280;19250;42.646;26.980;2023-02-28T05:16:52;99908.09;;;7.79;100.00
12799;BME280;19250;42.646;26.980;2023-02-28T05:19:19;99920.66;;;7.88;100.00
12799;BME280;19250;42.646;26.980;2023-02-28T05:21:51;99927.06;;;7.85;100.00
12799;BME280;19250;42.646;26.980;2023-02-28T05:24:19;99934.66;;;7.90;100.00
12799;BME280;19250;42.646;26.980;2023-02-28T05:26:49;99933.78;;;7.67;100.00
12799;BME280;19250;42.646;26.980;2023-02-28T05:29:18;99933.56;;;7.81;100.00
12799;BME280;19250;42.646;26.980;2023-02-28T05:31:46;99932.38;;;7.96;100.00
12799;BME280;19250;42.646;26.980;2023-02-28T05:34:15;99935.88;;;7.86;100.00
12799;BME280;19250;42.646;26.980;2023-02-28T05:36:42;99942.91;;;8.09;100.00
12799;BME280;19250;42.646;26.980;2023-02-28T05:39:10;99938.78;;;7.83;100.00
12799;BME280;19250;42.646;26.980;2023-02-28T05:41:40;99880.19;;;7.51;100.00
12799;BME280;19250;42.646;26.980;2023-02-28T05:44:08;99953.28;;;8.12;100.00
12799;BME280;19250;42.646;26.980;2023-02-28T05:46:35;99959.31;;;7.92;100.00
12799;BME280;19250;42.646;26.980;2023-02-28T05:49:02;99963.91;;;8.23;100.00
12799;BME280;19250;42.646;26.980;2023-02-28T05:51:31;99962.44;;;7.97;100.00
12799;BME280;19250;42.646;26.980;2023-02-28T05:54:00;99971.53;;;7.71;100.00
12799;BME280;19250;42.646;26.980;2023-02-28T05:56:28;99972.06;;;7.76;100.00
12799;BME280;19250;42.646;26.980;2023-02-28T05:58:55;99962.56;;;7.49;100.00
12799;BME280;19250;42.646;26.980;2023-02-28T06:01:31;99973.09;;;7.62;100.00
12799;BME280;19250;42.646;26.980;2023-02-28T06:03:59;99982.16;;;7.71;100.00
12799;BME280;19250;42.646;26.980;2023-02-28T06:06:27;99995.47;;;7.82;100.00
12799;BME280;19250;42.646;26.980;2023-02-28T06:08:56;99983.69;;;8.08;100.00
12799;BME280;19250;42.646;26.980;2023-02-28T06:11:24;99977.50;;;7.85;100.00
12799;BME280;19250;42.646;26.980;2023-02-28T06:13:53;99981.50;;;8.02;100.00
12799;BME280;19250;42.646;26.980;2023-02-28T06:16:21;99984.06;;;8.03;100.00
12799;BME280;19250;42.646;26.980;2023-02-28T06:18:49;99990.75;;;7.74;100.00
12799;BME280;19250;42.646;26.980;2023-02-28T06:21:16;99979.72;;;7.67;100.00
12799;BME280;19250;42.646;26.980;2023-02-28T06:23:43;99968.59;;;7.97;100.00
12799;BME280;19250;42.646;26.980;2023-02-28T06:26:12;99982.75;;;8.09;100.00
12799;BME280;19250;42.646;26.980;2023-02-28T06:28:39;99986.25;;;8.09;100.00
12799;BME280;19250;42.646;26.980;2023-02-28T06:31:08;99982.97;;;8.06;100.00
12799;BME280;19250;42.646;26.980;2023-02-28T06:33:35;99989.03;;;8.19;100.00
12799;BME280;19250;42.646;26.980;2023-02-28T06:36:03;99975.97;;;8.05;100.00
12799;BME280;19250;42.646;26.980;2023-02-28T06:38:31;99981.00;;;8.32;100.00
12799;BME280;19250;42.646;26.980;2023-02-28T06:41:00;99958.13;;;8.29;100.00
12799;BME280;19250;42.646;26.980;2023-02-28T06:43:30;99976.75;;;8.40;100.00
12799;BME280;19250;42.646;26.980;2023-02-28T06:46:00;99966.97;;;8.41;100.00
12799;BME280;19250;42.646;26.980;2023-02-28T06:48:28;99984.31;;;8.22;100.00
12799;BME280;19250;42.646;26.980;2023-02-28T06:51:02;99954.56;;;7.73;100.00
12799;BME280;19250;42.646;26.980;2023-02-28T06:53:29;99986.91;;;7.89;100.00
12799;BME280;19250;42.646;26.980;2023-02-28T06:55:57;99983.69;;;8.08;100.00
12799;BME280;19250;42.646;26.980;2023-02-28T06:58:24;99983.03;;;8.28;100.00
12799;BME280;19250;42.646;26.980;2023-02-28T07:00:52;99980.78;;;8.00;100.00
12799;BME280;19250;42.646;26.980;2023-02-28T07:03:20;99973.91;;;8.19;100.00
12799;BME280;19250;42.646;26.980;2023-02-28T07:05:47;99965.72;;;8.11;100.00
12799;BME280;19250;42.646;26.980;2023-02-28T07:08:15;99970.03;;;8.01;100.00
12799;BME280;19250;42.646;26.980;2023-02-28T07:10:42;99966.66;;;7.99;100.00
12799;BME280;19250;42.646;26.980;2023-02-28T07:13:10;99963.22;;;8.32;100.00
12799;BME280;19250;42.646;26.980;2023-02-28T07:15:37;99965.81;;;7.88;100.00
12799;BME280;19250;42.646;26.980;2023-02-28T07:18:06;99982.34;;;7.91;100.00
12799;BME280;19250;42.646;26.980;2023-02-28T07:20:33;99986.84;;;8.13;100.00
12799;BME280;19250;42.646;26.980;2023-02-28T07:23:01;99984.72;;;8.40;100.00
12799;BME280;19250;42.646;26.980;2023-02-28T07:25:28;99980.13;;;8.53;100.00
12799;BME280;19250;42.646;26.980;2023-02-28T07:27:56;99940.81;;;8.01;100.00
12799;BME280;19250;42.646;26.980;2023-02-28T07:30:25;99977.09;;;8.25;100.00
12799;BME280;19250;42.646;26.980;2023-02-28T07:32:52;99982.19;;;8.28;100.00
12799;BME280;19250;42.646;26.980;2023-02-28T07:35:23;99983.63;;;8.43;100.00
12799;BME280;19250;42.646;26.980;2023-02-28T07:37:50;99976.63;;;8.31;100.00
12799;BME280;19250;42.646;26.980;2023-02-28T07:40:18;99959.97;;;8.40;100.00
12799;BME280;19250;42.646;26.980;2023-02-28T07:42:45;99981.78;;;8.65;100.00
12799;BME280;19250;42.646;26.980;2023-02-28T07:45:12;99988.53;;;8.92;100.00
12799;BME280;19250;42.646;26.980;2023-02-28T07:47:41;99994.38;;;8.86;100.00
12799;BME280;19250;42.646;26.980;2023-02-28T07:50:11;100002.31;;;8.97;100.00
12799;BME280;19250;42.646;26.980;2023-02-28T07:52:40;99995.50;;;9.15;100.00
12799;BME280;19250;42.646;26.980;2023-02-28T07:55:09;99997.63;;;8.78;100.00
12799;BME280;19250;42.646;26.980;2023-02-28T07:57:36;99999.28;;;8.90;100.00
12799;BME280;19250;42.646;26.980;2023-02-28T08:00:04;99986.59;;;8.94;100.00
12799;BME280;19250;42.646;26.980;2023-02-28T08:02:33;100012.44;;;9.03;100.00
12799;BME280;19250;42.646;26.980;2023-02-28T08:05:00;100008.13;;;9.02;100.00
12799;BME280;19250;42.646;26.980;2023-02-28T08:07:28;99996.63;;;8.90;100.00
12799;BME280;19250;42.646;26.980;2023-02-28T08:09:56;100000.44;;;8.43;100.00
12799;BME280;19250;42.646;26.980;2023-02-28T08:12:24;99994.03;;;8.35;100.00
12799;BME280;19250;42.646;26.980;2023-02-28T08:14:51;99995.59;;;8.48;100.00
12799;BME280;19250;42.646;26.980;2023-02-28T08:17:18;100003.16;;;8.97;100.00
12799;BME280;19250;42.646;26.980;2023-02-28T08:19:45;100001.75;;;9.25;100.00
12799;BME280;19250;42.646;26.980;2023-02-28T08:22:13;99996.13;;;9.50;100.00
12799;BME280;19250;42.646;26.980;2023-02-28T08:24:41;99988.31;;;9.26;100.00
12799;BME280;19250;42.646;26.980;2023-02-28T08:27:10;99998.50;;;9.21;100.00
12799;BME280;19250;42.646;26.980;2023-02-28T08:29:38;99994.41;;;9.49;100.00
12799;BME280;19250;42.646;26.980;2023-02-28T08:35:27;99990.41;;;9.12;100.00
12799;BME280;19250;42.646;26.980;2023-02-28T08:37:54;100003.25;;;9.07;100.00
12799;BME280;19250;42.646;26.980;2023-02-28T08:40:22;100001.59;;;8.95;100.00
12799;BME280;19250;42.646;26.980;2023-02-28T08:42:51;100001.91;;;9.12;100.00
12799;BME280;19250;42.646;26.980;2023-02-28T08:45:18;99983.78;;;9.06;100.00
12799;BME280;19250;42.646;26.980;2023-02-28T08:47:46;99991.91;;;9.05;100.00
12799;BME280;19250;42.646;26.980;2023-02-28T08:50:13;99999.44;;;8.89;100.00
12799;BME280;19250;42.646;26.980;2023-02-28T08:52:42;99995.31;;;8.85;100.00
12799;BME280;19250;42.646;26.980;2023-02-28T08:55:09;99994.97;;;8.78;100.00
12799;BME280;19250;42.646;26.980;2023-02-28T08:57:37;99989.69;;;8.56;100.00
12799;BME280;19250;42.646;26.980;2023-02-28T09:00:07;99989.53;;;8.80;100.00
12799;BME280;19250;42.646;26.980;2023-02-28T09:02:35;99994.81;;;9.02;100.00
12799;BME280;19250;42.646;26.980;2023-02-28T09:05:03;99992.06;;;8.92;100.00
12799;BME280;19250;42.646;26.980;2023-02-28T09:07:31;100000.38;;;8.88;100.00
12799;BME280;19250;42.646;26.980;2023-02-28T09:09:58;100011.78;;;8.67;100.00
12799;BME280;19250;42.646;26.980;2023-02-28T09:12:26;100012.84;;;8.87;100.00
12799;BME280;19250;42.646;26.980;2023-02-28T09:14:54;100023.28;;;8.68;100.00
12799;BME280;19250;42.646;26.980;2023-02-28T09:17:23;100021.19;;;8.94;100.00
12799;BME280;19250;42.646;26.980;2023-02-28T09:19:50;100024.31;;;9.10;100.00
12799;BME280;19250;42.646;26.980;2023-02-28T09:22:17;100015.84;;;8.94;100.00
12799;BME280;19250;42.646;26.980;2023-02-28T09:24:45;100020.50;;;8.81;100.00
12799;BME280;19250;42.646;26.980;2023-02-28T09:27:12;100016.13;;;8.80;100.00
12799;BME280;19250;42.646;26.980;2023-02-28T09:29:39;100014.91;;;8.50;100.00
12799;BME280;19250;42.646;26.980;2023-02-28T09:32:06;100018.56;;;8.49;100.00
12799;BME280;19250;42.646;26.980;2023-02-28T09:34:35;100014.06;;;8.83;100.00
12799;BME280;19250;42.646;26.980;2023-02-28T09:37:03;100015.28;;;8.68;100.00
12799;BME280;19250;42.646;26.980;2023-02-28T09:39:30;100010.06;;;8.77;100.00
12799;BME280;19250;42.646;26.980;2023-02-28T09:41:57;100018.84;;;9.11;100.00
12799;BME280;19250;42.646;26.980;2023-02-28T09:44:30;100007.78;;;8.73;100.00
12799;BME280;19250;42.646;26.980;2023-02-28T09:47:01;100022.78;;;8.74;100.00
12799;BME280;19250;42.646;26.980;2023-02-28T09:49:37;100014.44;;;8.67;100.00
12799;BME280;19250;42.646;26.980;2023-02-28T09:52:09;100017.09;;;8.90;100.00
12799;BME280;19250;42.646;26.980;2023-02-28T09:54:37;100013.47;;;8.57;100.00
12799;BME280;19250;42.646;26.980;2023-02-28T09:57:08;100009.63;;;8.61;100.00
12799;BME280;19250;42.646;26.980;2023-02-28T09:59:49;100015.66;;;8.63;100.00
12799;BME280;19250;42.646;26.980;2023-02-28T10:05:37;100010.81;;;8.57;100.00
12799;BME280;19250;42.646;26.980;2023-02-28T10:08:13;100005.50;;;8.57;100.00
12799;BME280;19250;42.646;26.980;2023-02-28T10:10:42;99992.09;;;8.37;100.00
12799;BME280;19250;42.646;26.980;2023-02-28T10:16:06;99992.47;;;8.43;100.00
12799;BME280;19250;42.646;26.980;2023-02-28T10:18:42;99983.69;;;9.08;100.00
12799;BME280;19250;42.646;26.980;2023-02-28T10:21:19;99985.31;;;8.77;100.00
12799;BME280;19250;42.646;26.980;2023-02-28T10:23:48;99969.13;;;8.80;100.00
12799;BME280;19250;42.646;26.980;2023-02-28T10:26:17;99970.94;;;8.57;100.00
12799;BME280;19250;42.646;26.980;2023-02-28T10:28:45;99955.72;;;8.48;100.00
12799;BME280;19250;42.646;26.980;2023-02-28T10:31:15;99966.59;;;8.67;100.00
12799;BME280;19250;42.646;26.980;2023-02-28T10:33:44;99961.50;;;8.64;100.00
12799;BME280;19250;42.646;26.980;2023-02-28T10:36:16;99960.78;;;8.51;100.00
12799;BME280;19250;42.646;26.980;2023-02-28T10:38:44;99954.75;;;8.60;100.00
12799;BME280;19250;42.646;26.980;2023-02-28T10:41:14;99938.06;;;8.81;100.00
12799;BME280;19250;42.646;26.980;2023-02-28T10:43:43;99929.94;;;8.82;100.00
12799;BME280;19250;42.646;26.980;2023-02-28T10:46:13;99908.09;;;8.56;100.00
12799;BME280;19250;42.646;26.980;2023-02-28T10:49:01;99937.94;;;8.71;100.00
12799;BME280;19250;42.646;26.980;2023-02-28T10:51:41;99927.69;;;8.55;100.00
12799;BME280;19250;42.646;26.980;2023-02-28T10:54:15;99925.41;;;8.62;100.00
12799;BME280;19250;42.646;26.980;2023-02-28T10:56:43;99927.56;;;8.57;100.00
12799;BME280;19250;42.646;26.980;2023-02-28T10:59:28;99928.63;;;8.65;100.00
12799;BME280;19250;42.646;26.980;2023-02-28T11:01:56;99928.03;;;8.73;100.00
12799;BME280;19250;42.646;26.980;2023-02-28T11:04:35;99933.94;;;8.77;100.00
12799;BME280;19250;42.646;26.980;2023-02-28T11:07:17;99937.63;;;8.96;100.00
12799;BME280;19250;42.646;26.980;2023-02-28T11:09:46;99944.03;;;9.05;100.00
12799;BME280;19250;42.646;26.980;2023-02-28T11:12:21;99938.00;;;8.92;100.00
12799;BME280;19250;42.646;26.980;2023-02-28T11:14:51;99937.84;;;8.61;100.00
12799;BME280;19250;42.646;26.980;2023-02-28T11:17:21;99868.50;;;8.42;100.00
12799;BME280;19250;42.646;26.980;2023-02-28T11:19:51;99865.66;;;8.66;100.00
12799;BME280;19250;42.646;26.980;2023-02-28T11:22:23;99909.75;;;8.80;100.00
12799;BME280;19250;42.646;26.980;2023-02-28T11:24:56;99862.25;;;8.43;100.00
12799;BME280;19250;42.646;26.980;2023-02-28T11:27:45;99832.66;;;7.92;100.00
12799;BME280;19250;42.646;26.980;2023-02-28T11:30:29;99924.31;;;8.53;100.00
12799;BME280;19250;42.646;26.980;2023-02-28T11:32:57;99933.88;;;8.56;100.00
12799;BME280;19250;42.646;26.980;2023-02-28T11:35:29;99886.03;;;8.11;100.00
12799;BME280;19250;42.646;26.980;2023-02-28T11:37:58;99905.75;;;8.31;100.00
12799;BME280;19250;42.646;26.980;2023-02-28T11:40:31;99927.22;;;8.39;100.00
12799;BME280;19250;42.646;26.980;2023-02-28T11:43:12;99931.66;;;8.16;100.00
12799;BME280;19250;42.646;26.980;2023-02-28T11:45:57;99914.63;;;7.97;100.00
12799;BME280;19250;42.646;26.980;2023-02-28T11:48:32;99931.56;;;8.29;100.00
12799;BME280;19250;42.646;26.980;2023-02-28T11:51:12;99931.81;;;8.37;100.00
12799;BME280;19250;42.646;26.980;2023-02-28T11:53:54;99927.97;;;8.30;100.00
12799;BME280;19250;42.646;26.980;2023-02-28T11:56:31;99934.59;;;8.36;100.00
12799;BME280;19250;42.646;26.980;2023-02-28T11:59:25;99865.97;;;8.07;100.00
12799;BME280;19250;42.646;26.980;2023-02-28T12:02:06;99922.97;;;8.48;100.00
12799;BME280;19250;42.646;26.980;2023-02-28T12:04:51;99926.09;;;8.64;100.00
12799;BME280;19250;42.646;26.980;2023-02-28T12:07:30;99866.34;;;8.25;100.00
12799;BME280;19250;42.646;26.980;2023-02-28T12:10:06;99899.69;;;8.40;100.00
12799;BME280;19250;42.646;26.980;2023-02-28T12:12:46;99910.00;;;8.65;100.00
12799;BME280;19250;42.646;26.980;2023-02-28T12:15:32;99887.25;;;8.41;100.00
12799;BME280;19250;42.646;26.980;2023-02-28T12:18:14;99911.91;;;8.86;100.00
12799;BME280;19250;42.646;26.980;2023-02-28T12:20:49;99879.34;;;8.61;100.00
12799;BME280;19250;42.646;26.980;2023-02-28T12:23:46;99917.28;;;8.63;100.00
12799;BME280;19250;42.646;26.980;2023-02-28T12:26:30;99893.88;;;8.46;100.00
12799;BME280;19250;42.646;26.980;2023-02-28T12:29:04;99926.66;;;8.90;100.00
12799;BME280;19250;42.646;26.980;2023-02-28T12:31:39;99902.81;;;8.45;100.00
12799;BME280;19250;42.646;26.980;2023-02-28T12:34:12;99934.28;;;8.72;100.00
12799;BME280;19250;42.646;26.980;2023-02-28T12:36:43;99900.91;;;8.36;100.00
12799;BME280;19250;42.646;26.980;2023-02-28T12:39:15;99925.25;;;8.63;100.00
12799;BME280;19250;42.646;26.980;2023-02-28T12:41:48;99934.44;;;8.70;100.00
12799;BME280;19250;42.646;26.980;2023-02-28T12:44:21;99922.47;;;8.76;100.00
12799;BME280;19250;42.646;26.980;2023-02-28T12:46:52;99892.16;;;8.23;100.00
12799;BME280;19250;42.646;26.980;2023-02-28T12:49:25;99898.22;;;8.25;100.00
12799;BME280;19250;42.646;26.980;2023-02-28T12:51:53;99874.06;;;8.17;100.00
12799;BME280;19250;42.646;26.980;2023-02-28T12:54:26;99898.09;;;8.15;100.00
12799;BME280;19250;42.646;26.980;2023-02-28T12:57:04;99908.13;;;8.01;100.00
12799;BME280;19250;42.646;26.980;2023-02-28T12:59:37;99914.78;;;8.06;100.00
12799;BME280;19250;42.646;26.980;2023-02-28T13:05:50;99921.16;;;7.93;100.00
12799;BME280;19250;42.646;26.980;2023-02-28T13:08:52;99902.44;;;7.83;100.00
12799;BME280;19250;42.646;26.980;2023-02-28T13:11:28;99914.03;;;7.93;100.00
12799;BME280;19250;42.646;26.980;2023-02-28T13:14:00;99894.50;;;7.94;100.00
12799;BME280;19250;42.646;26.980;2023-02-28T13:16:28;99906.19;;;7.92;100.00
12799;BME280;19250;42.646;26.980;2023-02-28T13:19:17;99892.69;;;7.95;100.00
12799;BME280;19250;42.646;26.980;2023-02-28T13:21:47;99879.88;;;8.00;100.00
12799;BME280;19250;42.646;26.980;2023-02-28T13:24:36;99892.66;;;7.84;100.00
12799;BME280;19250;42.646;26.980;2023-02-28T13:27:35;99887.97;;;7.87;100.00